sensor_id;sensor_type;location;lat;lon;timestamp;P1;durP1;ratioP1;P2;durP2;ratioP2
25549;SDS011;13444;50.562;7.262;2023-06-22T00:01:27;6.95;;;6.35;;
25549;SDS011;13444;50.562;7.262;2023-06-22T00:03:52;7.72;;;7.03;;
25549;SDS011;13444;50.562;7.262;2023-06-22T00:06:18;7.05;;;6.28;;
25549;SDS011;13444;50.562;7.262;2023-06-22T00:08:43;7.28;;;6.57;;
25549;SDS011;13444;50.562;7.262;2023-06-22T00:11:09;7.25;;;6.30;;
25549;SDS011;13444;50.562;7.262;2023-06-22T00:13:34;8.10;;;6.00;;
25549;SDS011;13444;50.562;7.262;2023-06-22T00:16:00;7.55;;;6.20;;
25549;SDS011;13444;50.562;7.262;2023-06-22T00:18:26;8.18;;;7.15;;
25549;SDS011;13444;50.562;7.262;2023-06-22T00:20:53;6.30;;;5.75;;
25549;SDS011;13444;50.562;7.262;2023-06-22T00:23:22;7.45;;;6.85;;
25549;SDS011;13444;50.562;7.262;2023-06-22T00:25:48;7.13;;;6.40;;
25549;SDS011;13444;50.562;7.262;2023-06-22T00:28:14;10.50;;;6.90;;
25549;SDS011;13444;50.562;7.262;2023-06-22T00:30:40;7.85;;;6.10;;
25549;SDS011;13444;50.562;7.262;2023-06-22T00:33:05;7.63;;;5.82;;
25549;SDS011;13444;50.562;7.262;2023-06-22T00:35:32;6.28;;;5.68;;
25549;SDS011;13444;50.562;7.262;2023-06-22T00:37:59;6.85;;;5.70;;
25549;SDS011;13444;50.562;7.262;2023-06-22T00:40:29;8.27;;;6.32;;
25549;SDS011;13444;50.562;7.262;2023-06-22T00:42:56;9.05;;;5.97;;
25549;SDS011;13444;50.562;7.262;2023-06-22T00:45:24;7.00;;;5.80;;
25549;SDS011;13444;50.562;7.262;2023-06-22T00:47:51;8.82;;;6.13;;
25549;SDS011;13444;50.562;7.262;2023-06-22T00:50:18;9.15;;;5.90;;
25549;SDS011;13444;50.562;7.262;2023-06-22T00:52:47;6.15;;;5.55;;
25549;SDS011;13444;50.562;7.262;2023-06-22T00:55:16;7.65;;;6.60;;
25549;SDS011;13444;50.562;7.262;2023-06-22T00:57:43;7.28;;;6.28;;
25549;SDS011;13444;50.562;7.262;2023-06-22T01:00:12;12.55;;;7.07;;
25549;SDS011;13444;50.562;7.262;2023-06-22T01:02:42;7.47;;;6.32;;
25549;SDS011;13444;50.562;7.262;2023-06-22T01:05:10;7.07;;;6.15;;
25549;SDS011;13444;50.562;7.262;2023-06-22T01:10:36;8.00;;;7.30;;
25549;SDS011;13444;50.562;7.262;2023-06-22T01:13:07;7.70;;;6.88;;
25549;SDS011;13444;50.562;7.262;2023-06-22T01:15:40;8.02;;;7.22;;
25549;SDS011;13444;50.562;7.262;2023-06-22T01:18:11;7.15;;;6.45;;
25549;SDS011;13444;50.562;7.262;2023-06-22T01:20:39;7.72;;;6.70;;
25549;SDS011;13444;50.562;7.262;2023-06-22T01:26:33;7.47;;;6.72;;
25549;SDS011;13444;50.562;7.262;2023-06-22T01:28:49;9.05;;;7.10;;
25549;SDS011;13444;50.562;7.262;2023-06-22T01:31:16;7.95;;;7.15;;
25549;SDS011;13444;50.562;7.262;2023-06-22T01:33:45;7.07;;;6.40;;
25549;SDS011;13444;50.562;7.262;2023-06-22T01:36:14;8.43;;;7.03;;
25549;SDS011;13444;50.562;7.262;2023-06-22T01:38:42;9.00;;;6.55;;
25549;SDS011;13444;50.562;7.262;2023-06-22T01:41:10;8.82;;;6.10;;
25549;SDS011;13444;50.562;7.262;2023-06-22T01:43:36;6.57;;;5.93;;
25549;SDS011;13444;50.562;7.262;2023-06-22T01:46:02;7.10;;;6.30;;
25549;SDS011;13444;50.562;7.262;2023-06-22T01:48:29;7.13;;;6.00;;
25549;SDS011;13444;50.562;7.262;2023-06-22T01:50:56;7.75;;;6.95;;
25549;SDS011;13444;50.562;7.262;2023-06-22T01:53:22;7.15;;;6.47;;
25549;SDS011;13444;50.562;7.262;2023-06-22T01:55:49;6.93;;;6.13;;
25549;SDS011;13444;50.562;7.262;2023-06-22T01:58:15;7.70;;;6.32;;
25549;SDS011;13444;50.562;7.262;2023-06-22T02:00:53;7.05;;;6.15;;
25549;SDS011;13444;50.562;7.262;2023-06-22T02:03:25;7.13;;;6.25;;
25549;SDS011;13444;50.562;7.262;2023-06-22T02:05:56;6.43;;;5.80;;
25549;SDS011;13444;50.562;7.262;2023-06-22T02:08:47;7.03;;;6.18;;
25549;SDS011;13444;50.562;7.262;2023-06-22T02:11:20;6.57;;;5.97;;
25549;SDS011;13444;50.562;7.262;2023-06-22T02:13:47;7.38;;;6.28;;
25549;SDS011;13444;50.562;7.262;2023-06-22T02:16:13;8.02;;;6.78;;
25549;SDS011;13444;50.562;7.262;2023-06-22T02:18:47;6.85;;;6.15;;
25549;SDS011;13444;50.562;7.262;2023-06-22T02:21:15;9.90;;;6.70;;
25549;SDS011;13444;50.562;7.262;2023-06-22T02:23:42;8.80;;;7.22;;
25549;SDS011;13444;50.562;7.262;2023-06-22T02:26:07;9.77;;;7.97;;
25549;SDS011;13444;50.562;7.262;2023-06-22T02:28:33;8.05;;;7.20;;
25549;SDS011;13444;50.562;7.262;2023-06-22T02:30:58;7.38;;;6.68;;
25549;SDS011;13444;50.562;7.262;2023-06-22T02:33:24;7.78;;;6.97;;
25549;SDS011;13444;50.562;7.262;2023-06-22T02:35:50;7.88;;;6.78;;
25549;SDS011;13444;50.562;7.262;2023-06-22T02:38:15;9.48;;;7.15;;
25549;SDS011;13444;50.562;7.262;2023-06-22T02:40:42;7.75;;;7.05;;
25549;SDS011;13444;50.562;7.262;2023-06-22T02:43:08;8.65;;;6.90;;
25549;SDS011;13444;50.562;7.262;2023-06-22T02:45:33;8.48;;;6.57;;
25549;SDS011;13444;50.562;7.262;2023-06-22T02:47:59;7.57;;;6.40;;
25549;SDS011;13444;50.562;7.262;2023-06-22T02:50:24;8.50;;;7.70;;
25549;SDS011;13444;50.562;7.262;2023-06-22T02:52:50;8.25;;;7.35;;
25549;SDS011;13444;50.562;7.262;2023-06-22T02:55:15;8.48;;;7.25;;
25549;SDS011;13444;50.562;7.262;2023-06-22T02:57:41;10.02;;;7.38;;
25549;SDS011;13444;50.562;7.262;2023-06-22T03:00:08;9.70;;;7.40;;
25549;SDS011;13444;50.562;7.262;2023-06-22T03:02:45;8.27;;;7.40;;
25549;SDS011;13444;50.562;7.262;2023-06-22T03:05:14;8.10;;;6.65;;
25549;SDS011;13444;50.562;7.262;2023-06-22T03:07:43;11.32;;;7.10;;
25549;SDS011;13444;50.562;7.262;2023-06-22T03:10:09;8.38;;;6.97;;
25549;SDS011;13444;50.562;7.262;2023-06-22T03:12:36;8.75;;;5.78;;
25549;SDS011;13444;50.562;7.262;2023-06-22T03:15:04;8.88;;;6.35;;
25549;SDS011;13444;50.562;7.262;2023-06-22T03:17:34;7.50;;;6.60;;
25549;SDS011;13444;50.562;7.262;2023-06-22T03:20:00;10.00;;;6.70;;
25549;SDS011;13444;50.562;7.262;2023-06-22T03:22:26;9.65;;;6.65;;
25549;SDS011;13444;50.562;7.262;2023-06-22T03:24:52;8.48;;;7.30;;
25549;SDS011;13444;50.562;7.262;2023-06-22T03:27:17;6.70;;;6.10;;
25549;SDS011;13444;50.562;7.262;2023-06-22T03:29:43;8.82;;;6.05;;
25549;SDS011;13444;50.562;7.262;2023-06-22T03:32:09;8.43;;;7.00;;
25549;SDS011;13444;50.562;7.262;2023-06-22T03:34:35;7.72;;;6.93;;
25549;SDS011;13444;50.562;7.262;2023-06-22T03:37:03;9.30;;;7.07;;
25549;SDS011;13444;50.562;7.262;2023-06-22T03:39:29;7.55;;;6.38;;
25549;SDS011;13444;50.562;7.262;2023-06-22T03:41:55;7.55;;;6.75;;
25549;SDS011;13444;50.562;7.262;2023-06-22T03:44:20;7.15;;;6.53;;
25549;SDS011;13444;50.562;7.262;2023-06-22T03:46:46;7.50;;;6.80;;
25549;SDS011;13444;50.562;7.262;2023-06-22T03:49:11;7.82;;;6.90;;
25549;SDS011;13444;50.562;7.262;2023-06-22T03:51:37;7.97;;;6.53;;
25549;SDS011;13444;50.562;7.262;2023-06-22T03:54:02;7.80;;;7.00;;
25549;SDS011;13444;50.562;7.262;2023-06-22T03:56:28;7.40;;;6.55;;
25549;SDS011;13444;50.562;7.262;2023-06-22T03:58:54;6.63;;;6.03;;
25549;SDS011;13444;50.562;7.262;2023-06-22T04:01:19;8.88;;;6.43;;
25549;SDS011;13444;50.562;7.262;2023-06-22T04:03:45;7.47;;;6.65;;
25549;SDS011;13444;50.562;7.262;2023-06-22T04:06:13;6.93;;;6.32;;
25549;SDS011;13444;50.562;7.262;2023-06-22T04:08:38;7.15;;;6.45;;
25549;SDS011;13444;50.562;7.262;2023-06-22T04:11:04;6.93;;;6.28;;
25549;SDS011;13444;50.562;7.262;2023-06-22T04:13:30;8.27;;;6.00;;
25549;SDS011;13444;50.562;7.262;2023-06-22T04:15:55;7.20;;;5.80;;
25549;SDS011;13444;50.562;7.262;2023-06-22T04:18:21;7.45;;;6.18;;
25549;SDS011;13444;50.562;7.262;2023-06-22T04:20:46;7.88;;;6.10;;
25549;SDS011;13444;50.562;7.262;2023-06-22T04:23:12;7.00;;;6.30;;
25549;SDS011;13444;50.562;7.262;2023-06-22T04:25:38;6.72;;;5.90;;
25549;SDS011;13444;50.562;7.262;2023-06-22T04:28:04;9.00;;;7.72;;
25549;SDS011;13444;50.562;7.262;2023-06-22T04:30:32;10.20;;;6.75;;
25549;SDS011;13444;50.562;7.262;2023-06-22T04:32:58;8.50;;;7.68;;
25549;SDS011;13444;50.562;7.262;2023-06-22T04:35:24;11.20;;;7.32;;
25549;SDS011;13444;50.562;7.262;2023-06-22T04:37:50;7.70;;;6.68;;
25549;SDS011;13444;50.562;7.262;2023-06-22T04:40:19;10.02;;;7.05;;
25549;SDS011;13444;50.562;7.262;2023-06-22T04:42:48;8.57;;;6.95;;
25549;SDS011;13444;50.562;7.262;2023-06-22T04:45:18;7.38;;;6.53;;
25549;SDS011;13444;50.562;7.262;2023-06-22T04:47:45;10.30;;;6.40;;
25549;SDS011;13444;50.562;7.262;2023-06-22T04:50:11;8.45;;;6.07;;
25549;SDS011;13444;50.562;7.262;2023-06-22T04:52:37;6.50;;;5.90;;
25549;SDS011;13444;50.562;7.262;2023-06-22T04:55:03;9.63;;;6.47;;
25549;SDS011;13444;50.562;7.262;2023-06-22T04:57:29;10.93;;;7.10;;
25549;SDS011;13444;50.562;7.262;2023-06-22T04:59:58;14.13;;;7.60;;
25549;SDS011;13444;50.562;7.262;2023-06-22T05:02:36;10.15;;;6.75;;
25549;SDS011;13444;50.562;7.262;2023-06-22T05:05:02;13.38;;;7.57;;
25549;SDS011;13444;50.562;7.262;2023-06-22T05:07:35;9.80;;;7.13;;
25549;SDS011;13444;50.562;7.262;2023-06-22T05:10:02;9.48;;;6.78;;
25549;SDS011;13444;50.562;7.262;2023-06-22T05:12:28;10.45;;;6.80;;
25549;SDS011;13444;50.562;7.262;2023-06-22T05:14:54;6.65;;;5.90;;
25549;SDS011;13444;50.562;7.262;2023-06-22T05:17:20;16.95;;;8.75;;
25549;SDS011;13444;50.562;7.262;2023-06-22T05:19:45;19.73;;;9.27;;
25549;SDS011;13444;50.562;7.262;2023-06-22T05:22:14;27.05;;;12.00;;
25549;SDS011;13444;50.562;7.262;2023-06-22T05:24:41;23.40;;;9.15;;
25549;SDS011;13444;50.562;7.262;2023-06-22T05:27:07;19.15;;;8.80;;
25549;SDS011;13444;50.562;7.262;2023-06-22T05:29:33;20.50;;;8.20;;
25549;SDS011;13444;50.562;7.262;2023-06-22T05:31:58;21.42;;;8.95;;
25549;SDS011;13444;50.562;7.262;2023-06-22T05:34:24;18.63;;;8.02;;
25549;SDS011;13444;50.562;7.262;2023-06-22T05:36:49;18.40;;;8.73;;
25549;SDS011;13444;50.562;7.262;2023-06-22T05:39:15;15.82;;;7.18;;
25549;SDS011;13444;50.562;7.262;2023-06-22T05:41:40;9.43;;;7.28;;
25549;SDS011;13444;50.562;7.262;2023-06-22T05:44:06;10.93;;;6.70;;
25549;SDS011;13444;50.562;7.262;2023-06-22T05:46:32;10.70;;;6.43;;
25549;SDS011;13444;50.562;7.262;2023-06-22T05:48:57;9.05;;;6.13;;
25549;SDS011;13444;50.562;7.262;2023-06-22T05:51:23;8.35;;;6.30;;
25549;SDS011;13444;50.562;7.262;2023-06-22T05:53:48;8.60;;;6.60;;
25549;SDS011;13444;50.562;7.262;2023-06-22T05:56:18;7.82;;;7.00;;
25549;SDS011;13444;50.562;7.262;2023-06-22T05:58:43;6.70;;;5.72;;
25549;SDS011;13444;50.562;7.262;2023-06-22T06:01:09;11.55;;;6.00;;
25549;SDS011;13444;50.562;7.262;2023-06-22T06:03:35;10.27;;;6.00;;
25549;SDS011;13444;50.562;7.262;2023-06-22T06:06:05;14.32;;;7.55;;
25549;SDS011;13444;50.562;7.262;2023-06-22T06:08:31;11.27;;;7.55;;
25549;SDS011;13444;50.562;7.262;2023-06-22T06:10:57;8.45;;;6.22;;
25549;SDS011;13444;50.562;7.262;2023-06-22T06:13:23;9.85;;;7.07;;
25549;SDS011;13444;50.562;7.262;2023-06-22T06:15:48;8.68;;;5.57;;
25549;SDS011;13444;50.562;7.262;2023-06-22T06:18:16;6.07;;;5.47;;
25549;SDS011;13444;50.562;7.262;2023-06-22T06:20:42;6.20;;;5.47;;
25549;SDS011;13444;50.562;7.262;2023-06-22T06:23:07;6.95;;;5.93;;
25549;SDS011;13444;50.562;7.262;2023-06-22T06:25:33;9.77;;;6.38;;
25549;SDS011;13444;50.562;7.262;2023-06-22T06:27:59;8.50;;;6.10;;
25549;SDS011;13444;50.562;7.262;2023-06-22T06:30:24;7.88;;;5.60;;
25549;SDS011;13444;50.562;7.262;2023-06-22T06:32:50;8.65;;;6.07;;
25549;SDS011;13444;50.562;7.262;2023-06-22T06:35:16;8.93;;;5.72;;
25549;SDS011;13444;50.562;7.262;2023-06-22T06:37:42;7.15;;;6.05;;
25549;SDS011;13444;50.562;7.262;2023-06-22T06:40:13;8.85;;;6.18;;
25549;SDS011;13444;50.562;7.262;2023-06-22T06:42:41;7.07;;;6.07;;
25549;SDS011;13444;50.562;7.262;2023-06-22T06:45:14;6.68;;;5.55;;
25549;SDS011;13444;50.562;7.262;2023-06-22T06:47:41;6.90;;;5.55;;
25549;SDS011;13444;50.562;7.262;2023-06-22T06:50:08;7.95;;;5.88;;
25549;SDS011;13444;50.562;7.262;2023-06-22T06:52:34;6.00;;;5.40;;
25549;SDS011;13444;50.562;7.262;2023-06-22T06:55:00;10.60;;;6.35;;
25549;SDS011;13444;50.562;7.262;2023-06-22T06:57:26;8.70;;;6.72;;
25549;SDS011;13444;50.562;7.262;2023-06-22T06:59:55;9.18;;;7.00;;
25549;SDS011;13444;50.562;7.262;2023-06-22T07:02:21;9.13;;;6.70;;
25549;SDS011;13444;50.562;7.262;2023-06-22T07:04:47;6.22;;;5.63;;
25549;SDS011;13444;50.562;7.262;2023-06-22T07:07:13;6.97;;;5.85;;
25549;SDS011;13444;50.562;7.262;2023-06-22T07:09:39;7.40;;;5.80;;
25549;SDS011;13444;50.562;7.262;2023-06-22T07:12:05;7.05;;;5.55;;
25549;SDS011;13444;50.562;7.262;2023-06-22T07:14:31;6.53;;;5.78;;
25549;SDS011;13444;50.562;7.262;2023-06-22T07:16:57;9.80;;;6.90;;
25549;SDS011;13444;50.562;7.262;2023-06-22T07:19:26;8.13;;;5.53;;
25549;SDS011;13444;50.562;7.262;2023-06-22T07:21:53;7.20;;;6.07;;
25549;SDS011;13444;50.562;7.262;2023-06-22T07:24:22;9.38;;;6.57;;
25549;SDS011;13444;50.562;7.262;2023-06-22T07:26:49;6.57;;;5.95;;
25549;SDS011;13444;50.562;7.262;2023-06-22T07:29:16;12.23;;;6.80;;
25549;SDS011;13444;50.562;7.262;2023-06-22T07:31:42;15.77;;;7.40;;
25549;SDS011;13444;50.562;7.262;2023-06-22T07:34:08;6.97;;;6.28;;
25549;SDS011;13444;50.562;7.262;2023-06-22T07:36:33;9.48;;;6.25;;
25549;SDS011;13444;50.562;7.262;2023-06-22T07:39:00;9.15;;;5.93;;
25549;SDS011;13444;50.562;7.262;2023-06-22T07:41:27;7.03;;;5.90;;
25549;SDS011;13444;50.562;7.262;2023-06-22T07:43:53;7.25;;;6.55;;
25549;SDS011;13444;50.562;7.262;2023-06-22T07:46:19;7.60;;;6.90;;
25549;SDS011;13444;50.562;7.262;2023-06-22T07:48:44;7.15;;;6.45;;
25549;SDS011;13444;50.562;7.262;2023-06-22T07:51:10;9.60;;;6.75;;
25549;SDS011;13444;50.562;7.262;2023-06-22T07:53:39;8.43;;;6.10;;
25549;SDS011;13444;50.562;7.262;2023-06-22T07:56:05;6.90;;;6.10;;
25549;SDS011;13444;50.562;7.262;2023-06-22T07:58:32;8.60;;;6.30;;
25549;SDS011;13444;50.562;7.262;2023-06-22T08:00:58;8.40;;;6.60;;
25549;SDS011;13444;50.562;7.262;2023-06-22T08:03:24;9.35;;;7.05;;
25549;SDS011;13444;50.562;7.262;2023-06-22T08:05:49;6.93;;;6.30;;
25549;SDS011;13444;50.562;7.262;2023-06-22T08:08:15;7.82;;;6.72;;
25549;SDS011;13444;50.562;7.262;2023-06-22T08:10:41;7.93;;;6.05;;
25549;SDS011;13444;50.562;7.262;2023-06-22T08:13:07;8.02;;;6.35;;
25549;SDS011;13444;50.562;7.262;2023-06-22T08:15:33;11.60;;;6.35;;
25549;SDS011;13444;50.562;7.262;2023-06-22T08:17:58;9.15;;;6.40;;
25549;SDS011;13444;50.562;7.262;2023-06-22T08:20:25;7.63;;;6.50;;
25549;SDS011;13444;50.562;7.262;2023-06-22T08:22:53;7.13;;;6.43;;
25549;SDS011;13444;50.562;7.262;2023-06-22T08:25:19;7.93;;;7.13;;
25549;SDS011;13444;50.562;7.262;2023-06-22T08:27:45;7.00;;;6.13;;
25549;SDS011;13444;50.562;7.262;2023-06-22T08:30:12;10.40;;;7.15;;
25549;SDS011;13444;50.562;7.262;2023-06-22T08:32:38;7.68;;;6.32;;
25549;SDS011;13444;50.562;7.262;2023-06-22T08:35:04;7.72;;;6.50;;
25549;SDS011;13444;50.562;7.262;2023-06-22T08:37:31;7.82;;;7.03;;
25549;SDS011;13444;50.562;7.262;2023-06-22T08:40:00;9.05;;;6.97;;
25549;SDS011;13444;50.562;7.262;2023-06-22T08:42:29;7.65;;;6.88;;
25549;SDS011;13444;50.562;7.262;2023-06-22T08:44:55;9.10;;;7.38;;
25549;SDS011;13444;50.562;7.262;2023-06-22T08:47:20;8.70;;;6.95;;
25549;SDS011;13444;50.562;7.262;2023-06-22T08:49:46;9.32;;;6.53;;
25549;SDS011;13444;50.562;7.262;2023-06-22T08:52:12;8.70;;;6.63;;
25549;SDS011;13444;50.562;7.262;2023-06-22T08:54:38;8.52;;;6.82;;
25549;SDS011;13444;50.562;7.262;2023-06-22T08:57:03;7.35;;;6.70;;
25549;SDS011;13444;50.562;7.262;2023-06-22T08:59:29;10.07;;;6.65;;
25549;SDS011;13444;50.562;7.262;2023-06-22T09:01:55;7.82;;;7.03;;
25549;SDS011;13444;50.562;7.262;2023-06-22T09:04:21;9.43;;;7.40;;
25549;SDS011;13444;50.562;7.262;2023-06-22T09:06:47;7.47;;;6.68;;
25549;SDS011;13444;50.562;7.262;2023-06-22T09:09:13;11.18;;;7.25;;
25549;SDS011;13444;50.562;7.262;2023-06-22T09:11:39;8.68;;;6.40;;
25549;SDS011;13444;50.562;7.262;2023-06-22T09:14:05;7.90;;;6.78;;
25549;SDS011;13444;50.562;7.262;2023-06-22T09:16:31;10.95;;;6.78;;
25549;SDS011;13444;50.562;7.262;2023-06-22T09:18:57;9.45;;;6.57;;
25549;SDS011;13444;50.562;7.262;2023-06-22T09:21:23;7.55;;;6.85;;
25549;SDS011;13444;50.562;7.262;2023-06-22T09:23:49;9.63;;;6.93;;
25549;SDS011;13444;50.562;7.262;2023-06-22T09:26:19;7.05;;;6.25;;
25549;SDS011;13444;50.562;7.262;2023-06-22T09:28:45;8.45;;;6.82;;
25549;SDS011;13444;50.562;7.262;2023-06-22T09:31:12;11.93;;;6.88;;
25549;SDS011;13444;50.562;7.262;2023-06-22T09:33:37;9.07;;;6.80;;
25549;SDS011;13444;50.562;7.262;2023-06-22T09:36:05;8.68;;;6.90;;
25549;SDS011;13444;50.562;7.262;2023-06-22T09:38:35;7.78;;;6.45;;
25549;SDS011;13444;50.562;7.262;2023-06-22T09:41:01;8.32;;;6.72;;
25549;SDS011;13444;50.562;7.262;2023-06-22T09:43:27;9.52;;;6.97;;
25549;SDS011;13444;50.562;7.262;2023-06-22T09:45:53;11.50;;;6.40;;
25549;SDS011;13444;50.562;7.262;2023-06-22T09:48:19;8.35;;;6.35;;
25549;SDS011;13444;50.562;7.262;2023-06-22T09:50:44;9.55;;;6.97;;
25549;SDS011;13444;50.562;7.262;2023-06-22T09:53:10;14.88;;;7.22;;
25549;SDS011;13444;50.562;7.262;2023-06-22T09:55:35;8.02;;;6.32;;
25549;SDS011;13444;50.562;7.262;2023-06-22T09:58:01;10.20;;;6.85;;
25549;SDS011;13444;50.562;7.262;2023-06-22T10:00:26;9.13;;;6.88;;
25549;SDS011;13444;50.562;7.262;2023-06-22T10:02:52;9.40;;;6.90;;
25549;SDS011;13444;50.562;7.262;2023-06-22T10:05:17;9.40;;;6.80;;
25549;SDS011;13444;50.562;7.262;2023-06-22T10:07:43;9.40;;;6.75;;
25549;SDS011;13444;50.562;7.262;2023-06-22T10:10:09;8.95;;;6.80;;
25549;SDS011;13444;50.562;7.262;2023-06-22T10:12:36;9.15;;;7.47;;
25549;SDS011;13444;50.562;7.262;2023-06-22T10:15:02;9.70;;;7.25;;
25549;SDS011;13444;50.562;7.262;2023-06-22T10:17:28;7.28;;;6.57;;
25549;SDS011;13444;50.562;7.262;2023-06-22T10:19:54;9.20;;;7.38;;
25549;SDS011;13444;50.562;7.262;2023-06-22T10:22:19;8.48;;;6.90;;
25549;SDS011;13444;50.562;7.262;2023-06-22T10:24:45;9.75;;;6.78;;
25549;SDS011;13444;50.562;7.262;2023-06-22T10:27:11;11.10;;;6.65;;
25549;SDS011;13444;50.562;7.262;2023-06-22T10:29:37;8.68;;;7.32;;
25549;SDS011;13444;50.562;7.262;2023-06-22T10:32:02;10.32;;;7.80;;
25549;SDS011;13444;50.562;7.262;2023-06-22T10:34:28;9.65;;;7.85;;
25549;SDS011;13444;50.562;7.262;2023-06-22T10:36:54;8.68;;;7.68;;
25549;SDS011;13444;50.562;7.262;2023-06-22T10:39:19;8.88;;;7.80;;
25549;SDS011;13444;50.562;7.262;2023-06-22T10:41:45;8.82;;;7.93;;
25549;SDS011;13444;50.562;7.262;2023-06-22T10:44:10;9.18;;;7.50;;
25549;SDS011;13444;50.562;7.262;2023-06-22T10:46:37;12.50;;;7.65;;
25549;SDS011;13444;50.562;7.262;2023-06-22T10:49:02;11.00;;;9.23;;
25549;SDS011;13444;50.562;7.262;2023-06-22T10:51:28;18.58;;;11.27;;
25549;SDS011;13444;50.562;7.262;2023-06-22T10:53:54;13.20;;;9.10;;
25549;SDS011;13444;50.562;7.262;2023-06-22T10:56:19;15.82;;;10.18;;
25549;SDS011;13444;50.562;7.262;2023-06-22T10:58:45;19.13;;;10.50;;
25549;SDS011;13444;50.562;7.262;2023-06-22T11:01:11;21.05;;;13.43;;
25549;SDS011;13444;50.562;7.262;2023-06-22T11:03:36;20.20;;;11.18;;
25549;SDS011;13444;50.562;7.262;2023-06-22T11:06:02;20.85;;;12.05;;
25549;SDS011;13444;50.562;7.262;2023-06-22T11:08:28;22.05;;;12.48;;
25549;SDS011;13444;50.562;7.262;2023-06-22T11:10:53;19.83;;;12.70;;
25549;SDS011;13444;50.562;7.262;2023-06-22T11:13:19;15.50;;;11.73;;
25549;SDS011;13444;50.562;7.262;2023-06-22T11:15:44;15.63;;;11.75;;
25549;SDS011;13444;50.562;7.262;2023-06-22T11:18:10;21.15;;;12.85;;
25549;SDS011;13444;50.562;7.262;2023-06-22T11:20:35;19.27;;;13.52;;
25549;SDS011;13444;50.562;7.262;2023-06-22T11:23:04;7.93;;;6.70;;
25549;SDS011;13444;50.562;7.262;2023-06-22T11:25:31;5.88;;;3.95;;
25549;SDS011;13444;50.562;7.262;2023-06-22T11:27:56;5.50;;;4.70;;
25549;SDS011;13444;50.562;7.262;2023-06-22T11:30:22;7.50;;;4.82;;
25549;SDS011;13444;50.562;7.262;2023-06-22T11:32:48;6.80;;;4.45;;
25549;SDS011;13444;50.562;7.262;2023-06-22T11:35:13;5.50;;;3.20;;
25549;SDS011;13444;50.562;7.262;2023-06-22T11:37:39;4.28;;;3.13;;
25549;SDS011;13444;50.562;7.262;2023-06-22T11:40:04;5.88;;;2.65;;
25549;SDS011;13444;50.562;7.262;2023-06-22T11:42:33;6.85;;;3.25;;
25549;SDS011;13444;50.562;7.262;2023-06-22T11:44:59;3.30;;;2.80;;
25549;SDS011;13444;50.562;7.262;2023-06-22T11:47:25;8.30;;;3.55;;
25549;SDS011;13444;50.562;7.262;2023-06-22T11:49:50;5.63;;;3.25;;
25549;SDS011;13444;50.562;7.262;2023-06-22T11:52:16;5.95;;;4.22;;
25549;SDS011;13444;50.562;7.262;2023-06-22T11:54:42;5.82;;;4.53;;
25549;SDS011;13444;50.562;7.262;2023-06-22T11:57:08;8.50;;;4.47;;
25549;SDS011;13444;50.562;7.262;2023-06-22T11:59:34;5.18;;;4.65;;
25549;SDS011;13444;50.562;7.262;2023-06-22T12:01:59;6.82;;;4.28;;
25549;SDS011;13444;50.562;7.262;2023-06-22T12:04:25;6.35;;;3.75;;
25549;SDS011;13444;50.562;7.262;2023-06-22T12:06:50;6.38;;;4.38;;
25549;SDS011;13444;50.562;7.262;2023-06-22T12:09:16;6.63;;;4.05;;
25549;SDS011;13444;50.562;7.262;2023-06-22T12:11:41;6.78;;;4.32;;
25549;SDS011;13444;50.562;7.262;2023-06-22T12:14:07;9.93;;;4.78;;
25549;SDS011;13444;50.562;7.262;2023-06-22T12:16:32;7.03;;;4.75;;
25549;SDS011;13444;50.562;7.262;2023-06-22T12:18:58;6.50;;;4.30;;
25549;SDS011;13444;50.562;7.262;2023-06-22T12:21:24;6.30;;;3.90;;
25549;SDS011;13444;50.562;7.262;2023-06-22T12:23:49;6.63;;;4.22;;
25549;SDS011;13444;50.562;7.262;2023-06-22T12:26:15;5.13;;;4.30;;
25549;SDS011;13444;50.562;7.262;2023-06-22T12:28:40;6.07;;;4.47;;
25549;SDS011;13444;50.562;7.262;2023-06-22T12:31:06;8.27;;;4.82;;
25549;SDS011;13444;50.562;7.262;2023-06-22T12:33:32;5.07;;;4.13;;
25549;SDS011;13444;50.562;7.262;2023-06-22T12:35:57;7.55;;;4.78;;
25549;SDS011;13444;50.562;7.262;2023-06-22T12:38:23;5.75;;;4.10;;
25549;SDS011;13444;50.562;7.262;2023-06-22T12:40:50;6.22;;;5.05;;
25549;SDS011;13444;50.562;7.262;2023-06-22T12:43:16;7.13;;;4.03;;
25549;SDS011;13444;50.562;7.262;2023-06-22T12:45:41;10.05;;;4.68;;
25549;SDS011;13444;50.562;7.262;2023-06-22T12:48:07;6.60;;;4.82;;
25549;SDS011;13444;50.562;7.262;2023-06-22T12:50:33;6.28;;;4.57;;
25549;SDS011;13444;50.562;7.262;2023-06-22T12:52:59;7.60;;;4.75;;
25549;SDS011;13444;50.562;7.262;2023-06-22T12:55:27;4.38;;;3.90;;
25549;SDS011;13444;50.562;7.262;2023-06-22T12:57:52;7.45;;;4.05;;
25549;SDS011;13444;50.562;7.262;2023-06-22T13:00:18;6.40;;;3.90;;
25549;SDS011;13444;50.562;7.262;2023-06-22T13:02:44;8.30;;;4.10;;
25549;SDS011;13444;50.562;7.262;2023-06-22T13:05:10;5.90;;;4.13;;
25549;SDS011;13444;50.562;7.262;2023-06-22T13:07:36;8.88;;;3.78;;
25549;SDS011;13444;50.562;7.262;2023-06-22T13:10:01;5.85;;;4.03;;
25549;SDS011;13444;50.562;7.262;2023-06-22T13:12:27;5.35;;;4.03;;
25549;SDS011;13444;50.562;7.262;2023-06-22T13:14:53;5.63;;;3.92;;
25549;SDS011;13444;50.562;7.262;2023-06-22T13:17:18;5.45;;;3.22;;
25549;SDS011;13444;50.562;7.262;2023-06-22T13:19:44;4.38;;;3.30;;
25549;SDS011;13444;50.562;7.262;2023-06-22T13:22:31;6.45;;;3.72;;
25549;SDS011;13444;50.562;7.262;2023-06-22T13:24:56;4.95;;;3.35;;
25549;SDS011;13444;50.562;7.262;2023-06-22T13:27:22;7.18;;;3.63;;
25549;SDS011;13444;50.562;7.262;2023-06-22T13:29:48;4.93;;;3.50;;
25549;SDS011;13444;50.562;7.262;2023-06-22T13:32:14;5.38;;;3.45;;
25549;SDS011;13444;50.562;7.262;2023-06-22T13:34:39;5.80;;;3.85;;
25549;SDS011;13444;50.562;7.262;2023-06-22T13:37:05;8.05;;;3.90;;
25549;SDS011;13444;50.562;7.262;2023-06-22T13:39:30;4.72;;;3.45;;
25549;SDS011;13444;50.562;7.262;2023-06-22T13:41:57;7.63;;;3.65;;
25549;SDS011;13444;50.562;7.262;2023-06-22T13:44:23;5.80;;;3.85;;
25549;SDS011;13444;50.562;7.262;2023-06-22T13:46:52;4.30;;;3.63;;
25549;SDS011;13444;50.562;7.262;2023-06-22T13:49:18;5.80;;;4.38;;
25549;SDS011;13444;50.562;7.262;2023-06-22T13:51:43;7.07;;;4.15;;
25549;SDS011;13444;50.562;7.262;2023-06-22T13:54:09;8.10;;;4.20;;
25549;SDS011;13444;50.562;7.262;2023-06-22T13:56:35;6.43;;;4.88;;
25549;SDS011;13444;50.562;7.262;2023-06-22T13:59:00;5.72;;;4.95;;
25549;SDS011;13444;50.562;7.262;2023-06-22T14:01:26;8.85;;;5.53;;
25549;SDS011;13444;50.562;7.262;2023-06-22T14:03:51;6.03;;;5.00;;
25549;SDS011;13444;50.562;7.262;2023-06-22T14:06:17;6.07;;;5.47;;
25549;SDS011;13444;50.562;7.262;2023-06-22T14:08:42;7.53;;;5.93;;
25549;SDS011;13444;50.562;7.262;2023-06-22T14:11:08;8.25;;;5.45;;
25549;SDS011;13444;50.562;7.262;2023-06-22T14:13:34;7.82;;;5.50;;
25549;SDS011;13444;50.562;7.262;2023-06-22T14:16:00;14.15;;;7.05;;
25549;SDS011;13444;50.562;7.262;2023-06-22T14:18:26;9.25;;;7.05;;
25549;SDS011;13444;50.562;7.262;2023-06-22T14:20:52;10.70;;;7.18;;
25549;SDS011;13444;50.562;7.262;2023-06-22T14:23:17;10.65;;;7.28;;
25549;SDS011;13444;50.562;7.262;2023-06-22T14:25:43;7.72;;;6.13;;
25549;SDS011;13444;50.562;7.262;2023-06-22T14:28:08;11.63;;;7.85;;
25549;SDS011;13444;50.562;7.262;2023-06-22T14:30:34;11.45;;;7.97;;
25549;SDS011;13444;50.562;7.262;2023-06-22T14:32:59;10.07;;;7.75;;
25549;SDS011;13444;50.562;7.262;2023-06-22T14:35:25;11.38;;;8.00;;
25549;SDS011;13444;50.562;7.262;2023-06-22T14:37:50;13.23;;;9.40;;
25549;SDS011;13444;50.562;7.262;2023-06-22T14:40:16;14.45;;;7.68;;
25549;SDS011;13444;50.562;7.262;2023-06-22T14:42:41;11.63;;;7.43;;
25549;SDS011;13444;50.562;7.262;2023-06-22T14:45:07;14.25;;;8.32;;
25549;SDS011;13444;50.562;7.262;2023-06-22T14:47:33;11.23;;;7.03;;